Time;durP1;ratioP1;P1;durP2;ratioP2;P2;SDS_P1;SDS_P2;PMS_P1;PMS_P2;Temp;Humidity;BMP_temperature;BMP_pressure;BME280_temperature;BME280_humidity;BME280_pressure;Samples;Min_cycle;Max_cycle;Signal;HPM_P1;HPM_P2
2021/07/29 00:01:17;;;;;;;5.70;5.10;;;;;;;;;;5073332;28;20016;-61
2021/07/29 00:03:42;;;;;;;5.47;4.75;;;;;;;;;;5070476;28;20514;-61
2021/07/29 00:06:13;;;;;;;5.22;4.72;;;;;;;;;;5073208;28;20021;-61
2021/07/29 00:08:38;;;;;;;4.95;4.45;;;;;;;;;;5072315;28;20078;-61
2021/07/29 00:11:03;;;;;;;4.40;3.90;;;;;;;;;;5073033;28;20016;-60
2021/07/29 00:13:28;;;;;;;4.88;4.15;;;;;;;;;;5070282;28;20024;-61
2021/07/29 00:15:53;;;;;;;5.22;4.15;;;;;;;;;;5073028;28;20030;-61
2021/07/29 00:20:44;;;;;;;4.93;4.43;;;;;;;;;;5072958;28;20012;-61
2021/07/29 00:23:09;;;;;;;3.97;3.60;;;;;;;;;;5072078;28;20487;-61
2021/07/29 00:25:34;;;;;;;4.05;3.70;;;;;;;;;;5070675;28;20036;-62
2021/07/29 00:28:00;;;;;;;4.13;3.72;;;;;;;;;;5072120;28;20073;-61
2021/07/29 00:30:26;;;;;;;3.90;3.60;;;;;;;;;;5072821;28;20387;-61
2021/07/29 00:32:52;;;;;;;4.78;4.38;;;;;;;;;;5072645;28;20082;-60
2021/07/29 00:35:17;;;;;;;4.50;3.88;;;;;;;;;;5069720;28;20535;-61
2021/07/29 00:37:49;;;;;;;4.05;3.30;;;;;;;;;;5072930;28;20074;-61
2021/07/29 00:40:19;;;;;;;4.05;3.60;;;;;;;;;;5071503;28;20356;-61
2021/07/29 00:42:44;;;;;;;3.72;3.42;;;;;;;;;;5072650;28;20406;-61
2021/07/29 00:45:09;;;;;;;4.72;3.30;;;;;;;;;;5069809;28;20012;-61
2021/07/29 00:47:35;;;;;;;4.22;3.80;;;;;;;;;;5072639;28;20047;-61
2021/07/29 00:50:01;;;;;;;4.22;3.67;;;;;;;;;;5072325;28;20521;-61
2021/07/29 00:52:26;;;;;;;4.03;3.70;;;;;;;;;;5073102;28;20024;-61
2021/07/29 00:54:52;;;;;;;4.45;4.05;;;;;;;;;;5052567;28;20024;-61
2021/07/29 00:57:18;;;;;;;4.07;3.78;;;;;;;;;;5062839;28;20084;-61
2021/07/29 00:59:43;;;;;;;3.88;3.53;;;;;;;;;;5072431;28;20017;-61
2021/07/29 01:02:09;;;;;;;3.95;3.53;;;;;;;;;;5071725;28;20032;-61
2021/07/29 01:04:34;;;;;;;6.90;4.00;;;;;;;;;;5069458;28;20012;-61
2021/07/29 01:07:00;;;;;;;4.35;3.38;;;;;;;;;;5071782;28;20025;-61
2021/07/29 01:09:25;;;;;;;4.70;3.90;;;;;;;;;;5053645;28;20021;-61
2021/07/29 01:11:51;;;;;;;5.82;3.80;;;;;;;;;;5052304;28;20028;-61
2021/07/29 01:14:16;;;;;;;8.18;4.57;;;;;;;;;;5066161;28;20050;-61
2021/07/29 01:16:41;;;;;;;6.57;4.40;;;;;;;;;;5072284;28;20494;-61
2021/07/29 01:19:07;;;;;;;6.35;4.05;;;;;;;;;;5072032;28;20104;-60
2021/07/29 01:21:33;;;;;;;8.27;4.55;;;;;;;;;;5071998;28;20024;-60
2021/07/29 01:23:58;;;;;;;7.32;4.38;;;;;;;;;;5069534;28;20098;-60
2021/07/29 01:26:25;;;;;;;5.47;3.95;;;;;;;;;;5071956;28;20029;-60
2021/07/29 01:28:50;;;;;;;7.88;4.07;;;;;;;;;;5072135;28;20095;-60
2021/07/29 01:31:16;;;;;;;5.38;3.85;;;;;;;;;;5072445;28;20024;-60
2021/07/29 01:33:42;;;;;;;6.35;3.80;;;;;;;;;;5069459;28;20036;-60
2021/07/29 01:36:07;;;;;;;5.38;3.28;;;;;;;;;;5071121;28;20020;-60
2021/07/29 01:38:32;;;;;;;5.38;3.58;;;;;;;;;;5071630;28;20380;-60
2021/07/29 01:41:02;;;;;;;3.75;3.05;;;;;;;;;;5072151;28;20024;-60
2021/07/29 01:43:27;;;;;;;6.20;3.10;;;;;;;;;;5069052;28;20054;-60
2021/07/29 01:45:52;;;;;;;3.25;2.80;;;;;;;;;;5072065;28;20383;-60
2021/07/29 01:48:18;;;;;;;3.38;2.80;;;;;;;;;;5071547;28;20052;-61
2021/07/29 01:50:43;;;;;;;4.45;2.97;;;;;;;;;;5071957;28;20028;-61
2021/07/29 01:53:08;;;;;;;3.10;2.80;;;;;;;;;;5070478;28;20024;-60
2021/07/29 01:55:34;;;;;;;3.00;2.33;;;;;;;;;;5070578;28;20092;-61
2021/07/29 01:57:59;;;;;;;3.25;2.70;;;;;;;;;;5071718;28;20040;-61
2021/07/29 02:00:24;;;;;;;3.33;2.40;;;;;;;;;;5070227;28;20068;-60
2021/07/29 02:02:50;;;;;;;2.70;1.95;;;;;;;;;;5071950;28;20021;-60
2021/07/29 02:05:15;;;;;;;2.38;2.10;;;;;;;;;;5068764;28;20065;-60
2021/07/29 02:07:40;;;;;;;2.55;2.15;;;;;;;;;;5061010;28;20088;-60
2021/07/29 02:10:06;;;;;;;3.90;2.28;;;;;;;;;;5075480;28;20021;-60
2021/07/29 02:12:31;;;;;;;3.03;2.03;;;;;;;;;;5075359;28;20031;-62
2021/07/29 02:14:57;;;;;;;3.00;2.03;;;;;;;;;;5072672;28;20008;-60
2021/07/29 02:17:22;;;;;;;4.35;2.55;;;;;;;;;;5075324;28;20024;-60
2021/07/29 02:19:47;;;;;;;3.60;2.20;;;;;;;;;;5075007;28;20039;-60
2021/07/29 02:22:13;;;;;;;2.55;2.33;;;;;;;;;;5059846;28;20020;-60
2021/07/29 02:24:38;;;;;;;3.63;2.58;;;;;;;;;;5052480;28;20396;-60
2021/07/29 02:27:03;;;;;;;2.78;2.40;;;;;;;;;;5055271;28;20017;-60
2021/07/29 02:29:29;;;;;;;2.40;2.20;;;;;;;;;;5069669;28;20056;-60
2021/07/29 02:31:54;;;;;;;4.40;2.65;;;;;;;;;;5075456;28;20464;-60
2021/07/29 02:34:19;;;;;;;3.33;2.40;;;;;;;;;;5072164;28;20021;-60
2021/07/29 02:36:44;;;;;;;4.57;2.20;;;;;;;;;;5061628;28;20029;-60
2021/07/29 02:39:09;;;;;;;3.58;1.95;;;;;;;;;;5054834;28;20106;-60
2021/07/29 02:41:35;;;;;;;2.17;2.08;;;;;;;;;;5069051;28;20479;-60
2021/07/29 02:44:01;;;;;;;2.63;2.42;;;;;;;;;;5071804;28;20430;-60
2021/07/29 02:46:26;;;;;;;1.77;1.67;;;;;;;;;;5075600;28;20017;-60
2021/07/29 02:48:52;;;;;;;2.55;2.35;;;;;;;;;;5074909;28;20063;-60
2021/07/29 02:51:17;;;;;;;2.30;2.10;;;;;;;;;;5062671;28;20471;-60
2021/07/29 02:53:42;;;;;;;2.65;2.42;;;;;;;;;;5066488;28;20295;-61
2021/07/29 02:56:08;;;;;;;3.42;2.05;;;;;;;;;;5074681;28;20563;-60
2021/07/29 02:58:33;;;;;;;2.90;2.55;;;;;;;;;;5074525;28;20028;-61
2021/07/29 03:00:59;;;;;;;3.80;2.40;;;;;;;;;;5074510;28;20020;-61
2021/07/29 03:03:24;;;;;;;3.55;2.40;;;;;;;;;;5071815;28;20088;-61
2021/07/29 03:05:49;;;;;;;2.47;2.15;;;;;;;;;;5064590;28;20033;-61
2021/07/29 03:08:14;;;;;;;3.97;2.30;;;;;;;;;;5065387;28;20379;-61
2021/07/29 03:10:40;;;;;;;2.17;1.95;;;;;;;;;;5074274;28;20386;-61
2021/07/29 03:13:05;;;;;;;2.42;2.22;;;;;;;;;;5070164;28;20032;-60
2021/07/29 03:15:31;;;;;;;4.78;2.53;;;;;;;;;;5052180;28;20017;-61
2021/07/29 03:17:56;;;;;;;2.65;2.45;;;;;;;;;;5054918;28;20033;-61
2021/07/29 03:20:22;;;;;;;4.68;2.42;;;;;;;;;;5053246;28;20427;-61
2021/07/29 03:22:47;;;;;;;2.33;2.13;;;;;;;;;;5063070;28;20017;-61
2021/07/29 03:25:12;;;;;;;3.35;2.13;;;;;;;;;;5070791;28;20020;-61
2021/07/29 03:27:37;;;;;;;2.08;1.98;;;;;;;;;;5073987;28;20504;-60
2021/07/29 03:30:03;;;;;;;3.47;2.00;;;;;;;;;;5074158;28;20056;-61
2021/07/29 03:32:28;;;;;;;2.25;1.90;;;;;;;;;;5074345;28;20482;-62
2021/07/29 03:34:53;;;;;;;1.88;1.75;;;;;;;;;;5070846;28;20032;-61
2021/07/29 03:37:18;;;;;;;2.65;2.13;;;;;;;;;;5066632;28;20033;-60
2021/07/29 03:39:44;;;;;;;2.30;1.65;;;;;;;;;;5060951;28;20020;-61
2021/07/29 03:42:09;;;;;;;3.42;2.22;;;;;;;;;;5056659;28;20048;-60
2021/07/29 03:44:34;;;;;;;2.50;2.30;;;;;;;;;;5070270;28;20024;-61
2021/07/29 03:46:59;;;;;;;2.55;1.85;;;;;;;;;;5073857;28;20021;-61
2021/07/29 03:49:24;;;;;;;2.67;1.83;;;;;;;;;;5073478;28;20017;-61
2021/07/29 03:51:50;;;;;;;2.28;1.70;;;;;;;;;;5068274;28;20494;-61
2021/07/29 03:54:15;;;;;;;4.30;2.20;;;;;;;;;;5050652;28;20033;-61
2021/07/29 03:56:40;;;;;;;2.43;1.70;;;;;;;;;;5073139;28;20105;-61
2021/07/29 03:59:05;;;;;;;4.03;1.90;;;;;;;;;;5072623;28;20792;-61
2021/07/29 04:01:31;;;;;;;2.85;2.00;;;;;;;;;;5073750;28;20091;-61
2021/07/29 04:03:56;;;;;;;1.90;1.80;;;;;;;;;;5070411;28;20366;-61
2021/07/29 04:06:21;;;;;;;2.22;2.10;;;;;;;;;;5073339;28;20090;-61
2021/07/29 04:08:46;;;;;;;3.13;2.15;;;;;;;;;;5073340;28;20107;-61
2021/07/29 04:11:11;;;;;;;2.55;2.35;;;;;;;;;;5073172;28;20089;-61
2021/07/29 04:13:37;;;;;;;1.77;1.67;;;;;;;;;;5060695;28;20446;-60
2021/07/29 04:16:02;;;;;;;2.65;1.90;;;;;;;;;;5053297;28;20538;-61
2021/07/29 04:18:28;;;;;;;2.33;2.05;;;;;;;;;;5051950;28;20361;-61
2021/07/29 04:20:54;;;;;;;2.67;2.13;;;;;;;;;;5062298;28;20031;-61
2021/07/29 04:23:19;;;;;;;2.05;1.70;;;;;;;;;;5070796;28;20471;-61
2021/07/29 04:25:44;;;;;;;3.85;2.08;;;;;;;;;;5071254;28;20067;-61
2021/07/29 04:28:09;;;;;;;2.05;1.90;;;;;;;;;;5071822;28;20050;-61
2021/07/29 04:30:35;;;;;;;2.28;2.08;;;;;;;;;;5061465;28;20375;-62
2021/07/29 04:33:00;;;;;;;2.60;2.15;;;;;;;;;;5060826;28;20483;-60
2021/07/29 04:35:25;;;;;;;2.83;1.90;;;;;;;;;;5069319;28;20152;-61
2021/07/29 04:37:50;;;;;;;2.75;1.80;;;;;;;;;;5071749;28;20375;-60
2021/07/29 04:40:15;;;;;;;1.92;1.83;;;;;;;;;;5072453;28;20479;-60
2021/07/29 04:42:41;;;;;;;2.25;2.05;;;;;;;;;;5070632;28;20483;-60
2021/07/29 04:45:06;;;;;;;2.17;2.00;;;;;;;;;;5069376;28;20029;-60
2021/07/29 04:47:31;;;;;;;2.20;2.00;;;;;;;;;;5072578;28;20051;-58
2021/07/29 04:49:57;;;;;;;4.03;2.17;;;;;;;;;;5071451;28;20412;-60
2021/07/29 04:52:22;;;;;;;2.67;2.10;;;;;;;;;;5072625;28;20021;-61
2021/07/29 04:54:47;;;;;;;2.45;2.25;;;;;;;;;;5069665;28;20020;-61
2021/07/29 04:57:12;;;;;;;2.10;1.90;;;;;;;;;;5071191;28;20052;-61
2021/07/29 04:59:40;;;;;;;2.03;1.75;;;;;;;;;;5072311;28;20020;-61
2021/07/29 05:02:07;;;;;;;2.10;1.90;;;;;;;;;;5072521;28;20041;-61
2021/07/29 05:04:32;;;;;;;3.13;2.30;;;;;;;;;;5069378;28;20024;-61
2021/07/29 05:06:58;;;;;;;3.28;2.10;;;;;;;;;;5072553;28;20050;-61
2021/07/29 05:09:23;;;;;;;4.97;1.98;;;;;;;;;;5071976;28;20024;-60
2021/07/29 05:11:48;;;;;;;4.00;1.92;;;;;;;;;;5071656;28;20529;-61
2021/07/29 05:14:13;;;;;;;2.75;1.95;;;;;;;;;;5069069;28;20382;-61
2021/07/29 05:16:39;;;;;;;2.25;1.60;;;;;;;;;;5072271;28;20016;-62
2021/07/29 05:19:04;;;;;;;2.03;1.85;;;;;;;;;;5072080;28;20024;-61
2021/07/29 05:21:29;;;;;;;1.90;1.80;;;;;;;;;;5071971;28;20099;-61
2021/07/29 05:23:55;;;;;;;3.60;2.30;;;;;;;;;;5069494;28;20305;-61
2021/07/29 05:26:20;;;;;;;3.15;1.77;;;;;;;;;;5071161;28;20032;-60
2021/07/29 05:28:46;;;;;;;2.38;1.77;;;;;;;;;;5072149;28;20017;-61
2021/07/29 05:31:12;;;;;;;4.45;2.13;;;;;;;;;;5071791;28;20016;-61
2021/07/29 05:33:37;;;;;;;2.20;2.00;;;;;;;;;;5068891;28;20020;-61
2021/07/29 05:36:03;;;;;;;1.98;1.67;;;;;;;;;;5068014;28;20386;-61
2021/07/29 05:38:28;;;;;;;1.35;1.15;;;;;;;;;;5072372;28;20432;-61
2021/07/29 05:40:58;;;;;;;1.60;1.38;;;;;;;;;;5069713;28;20423;-60
2021/07/29 05:43:23;;;;;;;2.10;1.67;;;;;;;;;;5069637;28;20012;-61
2021/07/29 05:45:49;;;;;;;2.40;1.70;;;;;;;;;;5063538;28;20031;-61
2021/07/29 05:48:14;;;;;;;2.03;1.60;;;;;;;;;;5055514;28;20021;-61
2021/07/29 05:50:39;;;;;;;4.90;1.80;;;;;;;;;;5055731;28;20023;-61
2021/07/29 05:53:04;;;;;;;1.92;1.70;;;;;;;;;;5055357;28;20064;-61
2021/07/29 05:55:29;;;;;;;3.38;1.95;;;;;;;;;;5053379;28;20040;-61
2021/07/29 05:57:55;;;;;;;3.90;1.98;;;;;;;;;;5065283;28;20080;-61
2021/07/29 06:00:20;;;;;;;2.05;1.70;;;;;;;;;;5075382;28;20060;-60
2021/07/29 06:02:45;;;;;;;1.73;0.90;;;;;;;;;;5075623;28;20059;-60
2021/07/29 06:05:10;;;;;;;3.25;1.30;;;;;;;;;;5067312;28;20264;-61
2021/07/29 06:07:35;;;;;;;1.92;1.42;;;;;;;;;;5055803;28;20021;-61
2021/07/29 06:10:01;;;;;;;3.03;2.30;;;;;;;;;;5074732;28;20035;-61
2021/07/29 06:12:27;;;;;;;1.95;0.80;;;;;;;;;;5075571;28;20258;-61
2021/07/29 06:14:53;;;;;;;1.45;1.00;;;;;;;;;;5072738;28;20077;-61
2021/07/29 06:17:22;;;;;;;2.35;1.30;;;;;;;;;;5075342;28;20016;-60
2021/07/29 06:19:47;;;;;;;2.47;1.00;;;;;;;;;;5075297;28;20020;-61
2021/07/29 06:22:12;;;;;;;2.53;1.07;;;;;;;;;;5074674;28;20466;-61
2021/07/29 06:24:38;;;;;;;1.23;1.13;;;;;;;;;;5071708;28;20267;-61
2021/07/29 06:27:03;;;;;;;1.08;0.80;;;;;;;;;;5075116;28;20017;-61
2021/07/29 06:29:28;;;;;;;1.90;1.30;;;;;;;;;;5074799;28;20052;-61
2021/07/29 06:31:53;;;;;;;2.33;1.15;;;;;;;;;;5075309;28;20039;-61
2021/07/29 06:34:19;;;;;;;2.15;1.10;;;;;;;;;;5070644;28;20099;-61
2021/07/29 06:36:44;;;;;;;1.50;1.02;;;;;;;;;;5074599;28;20075;-61
2021/07/29 06:39:09;;;;;;;1.35;1.00;;;;;;;;;;5073743;28;20020;-61
2021/07/29 06:41:34;;;;;;;1.42;1.27;;;;;;;;;;5074977;28;20035;-61
2021/07/29 06:44:00;;;;;;;3.58;1.13;;;;;;;;;;5071631;28;20021;-61
2021/07/29 06:46:25;;;;;;;2.22;1.27;;;;;;;;;;5074677;28;20016;-62
2021/07/29 06:48:50;;;;;;;1.35;1.05;;;;;;;;;;5074834;28;20159;-61
2021/07/29 06:51:15;;;;;;;4.35;1.80;;;;;;;;;;5074630;28;20051;-61
2021/07/29 06:53:41;;;;;;;1.58;1.10;;;;;;;;;;5071842;28;20012;-59
2021/07/29 06:56:07;;;;;;;2.25;0.98;;;;;;;;;;5072311;28;20041;-61
2021/07/29 06:58:32;;;;;;;2.92;1.50;;;;;;;;;;5074320;28;20020;-61
2021/07/29 07:01:01;;;;;;;3.53;1.25;;;;;;;;;;5075036;28;20033;-61
2021/07/29 07:03:27;;;;;;;1.88;1.15;;;;;;;;;;5072186;28;20012;-61
2021/07/29 07:05:52;;;;;;;1.60;1.10;;;;;;;;;;5074338;28;20356;-61
2021/07/29 07:08:18;;;;;;;1.10;1.00;;;;;;;;;;5074333;28;20028;-61
2021/07/29 07:10:43;;;;;;;3.70;0.60;;;;;;;;;;5064027;28;20276;-61
2021/07/29 07:13:09;;;;;;;1.20;1.08;;;;;;;;;;5053206;28;20032;-61
2021/07/29 07:15:34;;;;;;;1.80;1.00;;;;;;;;;;5052281;28;20035;-61
2021/07/29 07:17:59;;;;;;;2.28;1.10;;;;;;;;;;5054363;28;20025;-61
2021/07/29 07:20:24;;;;;;;2.13;0.88;;;;;;;;;;5069214;28;20056;-61
2021/07/29 07:22:50;;;;;;;3.28;0.98;;;;;;;;;;5074443;28;20016;-61
2021/07/29 07:25:15;;;;;;;4.05;1.08;;;;;;;;;;5070383;28;20474;-61
2021/07/29 07:27:41;;;;;;;5.60;1.33;;;;;;;;;;5073994;28;20025;-61
2021/07/29 07:30:06;;;;;;;2.17;1.30;;;;;;;;;;5073470;28;20377;-61
2021/07/29 07:32:31;;;;;;;1.40;1.30;;;;;;;;;;5074118;28;20459;-61
2021/07/29 07:34:56;;;;;;;1.50;0.75;;;;;;;;;;5071530;28;20024;-62
2021/07/29 07:37:22;;;;;;;2.87;1.20;;;;;;;;;;5073966;28;20031;-61
2021/07/29 07:39:47;;;;;;;3.95;1.48;;;;;;;;;;5068349;28;20271;-60
2021/07/29 07:42:12;;;;;;;2.53;1.33;;;;;;;;;;5073275;28;20017;-61
2021/07/29 07:44:38;;;;;;;4.75;1.20;;;;;;;;;;5070507;28;20047;-61
2021/07/29 07:47:03;;;;;;;4.93;1.35;;;;;;;;;;5073286;28;20028;-61
2021/07/29 07:49:28;;;;;;;2.67;1.58;;;;;;;;;;5073727;28;20031;-60
2021/07/29 07:51:54;;;;;;;3.67;1.17;;;;;;;;;;5073177;28;20384;-61
2021/07/29 07:54:19;;;;;;;1.42;1.10;;;;;;;;;;5070449;28;20372;-61
2021/07/29 07:56:44;;;;;;;2.47;1.58;;;;;;;;;;5073318;28;20036;-61
2021/07/29 07:59:09;;;;;;;2.10;1.20;;;;;;;;;;5073012;28;20087;-61
2021/07/29 08:01:37;;;;;;;5.43;1.30;;;;;;;;;;5072019;28;20017;-61
2021/07/29 08:04:02;;;;;;;2.20;0.82;;;;;;;;;;5070495;28;20359;-61
2021/07/29 08:06:27;;;;;;;2.35;1.00;;;;;;;;;;5071264;28;20024;-61
2021/07/29 08:08:52;;;;;;;3.95;1.38;;;;;;;;;;5072859;28;20029;-61
2021/07/29 08:11:18;;;;;;;1.77;1.15;;;;;;;;;;5073038;28;20020;-61
2021/07/29 08:13:44;;;;;;;3.13;1.15;;;;;;;;;;5070191;28;20243;-61
2021/07/29 08:16:09;;;;;;;1.15;0.90;;;;;;;;;;5073134;28;20095;-61
2021/07/29 08:18:34;;;;;;;3.80;1.70;;;;;;;;;;5072931;28;20383;-61
2021/07/29 08:20:59;;;;;;;2.55;1.08;;;;;;;;;;5072018;28;20468;-61
2021/07/29 08:23:25;;;;;;;2.10;1.15;;;;;;;;;;5070121;28;20024;-61
2021/07/29 08:25:50;;;;;;;1.88;1.17;;;;;;;;;;5072888;28;20028;-61
2021/07/29 08:28:15;;;;;;;2.90;1.25;;;;;;;;;;5072597;28;20051;-61
2021/07/29 08:30:40;;;;;;;2.67;0.80;;;;;;;;;;5072477;28;20028;-61
2021/07/29 08:33:09;;;;;;;1.15;0.90;;;;;;;;;;5071775;28;20024;-61
2021/07/29 08:35:36;;;;;;;2.20;1.00;;;;;;;;;;5054810;28;20040;-61
2021/07/29 08:38:01;;;;;;;3.25;1.25;;;;;;;;;;5052905;28;20032;-61
2021/07/29 08:40:26;;;;;;;4.35;1.20;;;;;;;;;;5065606;28;20017;-61
2021/07/29 08:42:51;;;;;;;1.88;1.38;;;;;;;;;;5060914;28;20032;-61
2021/07/29 08:45:17;;;;;;;2.13;1.27;;;;;;;;;;5069416;28;20038;-61
2021/07/29 08:47:43;;;;;;;2.50;1.50;;;;;;;;;;5072614;28;20251;-61
2021/07/29 08:50:08;;;;;;;3.10;1.55;;;;;;;;;;5072049;28;20357;-60
2021/07/29 08:52:33;;;;;;;2.90;1.27;;;;;;;;;;5072525;28;20506;-60
2021/07/29 08:54:59;;;;;;;2.40;1.20;;;;;;;;;;5068776;28;20024;-60
2021/07/29 08:57:28;;;;;;;5.72;1.52;;;;;;;;;;5053370;28;20049;-60
2021/07/29 08:59:54;;;;;;;3.28;1.20;;;;;;;;;;5072152;28;20511;-60
2021/07/29 09:02:23;;;;;;;0.95;0.55;;;;;;;;;;5072162;28;20052;-61
2021/07/29 09:05:12;;;;;;;2.90;1.35;;;;;;;;;;5069331;28;20076;-61
2021/07/29 09:07:37;;;;;;;3.50;0.80;;;;;;;;;;5063759;28;20134;-61
2021/07/29 09:10:04;;;;;;;3.33;1.50;;;;;;;;;;5071701;28;20028;-61
2021/07/29 09:12:29;;;;;;;2.55;1.30;;;;;;;;;;5070744;28;20383;-61
2021/07/29 09:14:54;;;;;;;1.65;1.15;;;;;;;;;;5067723;28;20016;-61
2021/07/29 09:17:20;;;;;;;2.00;1.08;;;;;;;;;;5052153;28;20027;-61
2021/07/29 09:19:46;;;;;;;3.47;1.10;;;;;;;;;;5056006;28;20107;-61
2021/07/29 09:22:12;;;;;;;2.28;1.38;;;;;;;;;;5071382;28;20029;-61
2021/07/29 09:25:02;;;;;;;3.35;1.20;;;;;;;;;;5069293;28;20142;-61
2021/07/29 09:27:47;;;;;;;4.70;1.58;;;;;;;;;;5071395;28;20017;-61
2021/07/29 09:30:29;;;;;;;1.48;1.10;;;;;;;;;;5059677;28;20402;-61
2021/07/29 09:33:00;;;;;;;3.10;1.70;;;;;;;;;;5072108;28;20058;-61
2021/07/29 09:35:28;;;;;;;2.85;1.40;;;;;;;;;;5067815;28;20021;-61
2021/07/29 09:37:54;;;;;;;3.05;1.40;;;;;;;;;;5061528;28;20013;-61
2021/07/29 09:40:19;;;;;;;1.85;1.30;;;;;;;;;;5051734;28;20429;-61
2021/07/29 09:42:44;;;;;;;1.50;1.20;;;;;;;;;;5051849;28;20025;-61
2021/07/29 09:45:09;;;;;;;1.85;1.35;;;;;;;;;;5066485;28;20534;-61
2021/07/29 09:47:36;;;;;;;2.03;1.23;;;;;;;;;;5071636;28;20429;-61
2021/07/29 09:50:01;;;;;;;2.65;1.20;;;;;;;;;;5071677;28;20048;-61
2021/07/29 09:52:27;;;;;;;3.22;1.30;;;;;;;;;;5072052;28;20095;-61
2021/07/29 09:54:54;;;;;;;1.58;1.35;;;;;;;;;;5069086;28;20487;-61
2021/07/29 09:57:19;;;;;;;3.35;1.83;;;;;;;;;;5070353;28;20079;-61
2021/07/29 09:59:44;;;;;;;2.93;1.50;;;;;;;;;;5071650;28;20098;-61
2021/07/29 10:02:10;;;;;;;2.28;1.60;;;;;;;;;;5071714;28;20343;-61
2021/07/29 10:04:43;;;;;;;1.98;0.80;;;;;;;;;;5061417;28;20078;-61
2021/07/29 10:07:17;;;;;;;2.47;2.00;;;;;;;;;;5071707;28;20426;-62
2021/07/29 10:09:45;;;;;;;1.75;1.23;;;;;;;;;;5071600;28;20038;-61
2021/07/29 10:12:12;;;;;;;3.20;1.33;;;;;;;;;;5071060;28;20062;-66
2021/07/29 10:14:47;;;;;;;2.83;0.98;;;;;;;;;;5068604;28;20024;-61
2021/07/29 10:17:12;;;;;;;1.88;1.20;;;;;;;;;;5071505;28;20070;-61
2021/07/29 10:19:56;;;;;;;3.25;1.50;;;;;;;;;;5064360;28;20024;-62
2021/07/29 10:22:22;;;;;;;1.92;1.00;;;;;;;;;;5071081;28;20034;-61
2021/07/29 10:24:51;;;;;;;1.98;1.20;;;;;;;;;;5068841;28;20102;-62
2021/07/29 10:27:16;;;;;;;2.38;1.10;;;;;;;;;;5071034;28;20027;-61
2021/07/29 10:29:41;;;;;;;3.72;1.30;;;;;;;;;;5069201;28;20025;-61
2021/07/29 10:32:10;;;;;;;2.63;1.23;;;;;;;;;;5069159;28;20028;-62
2021/07/29 10:34:36;;;;;;;4.03;1.80;;;;;;;;;;5072156;28;20020;-62
2021/07/29 10:37:02;;;;;;;2.42;1.20;;;;;;;;;;5074644;28;20430;-62
2021/07/29 10:39:28;;;;;;;2.00;1.10;;;;;;;;;;5066804;28;20559;-62
2021/07/29 10:41:55;;;;;;;2.33;1.20;;;;;;;;;;5055044;28;20028;-62
2021/07/29 10:44:49;;;;;;;2.50;1.05;;;;;;;;;;5051694;28;20514;-62
2021/07/29 10:47:32;;;;;;;3.03;0.77;;;;;;;;;;5050026;28;20115;-62
2021/07/29 10:49:57;;;;;;;1.40;0.95;;;;;;;;;;5074440;28;20313;-62
2021/07/29 10:52:23;;;;;;;2.07;1.37;;;;;;;;;;5074687;28;20054;-62
2021/07/29 10:54:48;;;;;;;0.90;0.57;;;;;;;;;;5058605;28;20278;-62
2021/07/29 10:57:13;;;;;;;1.85;1.25;;;;;;;;;;5054463;28;20068;-62
2021/07/29 10:59:39;;;;;;;2.35;1.00;;;;;;;;;;5065513;28;20032;-62
2021/07/29 11:02:08;;;;;;;1.70;1.17;;;;;;;;;;5070544;28;20081;-62
2021/07/29 11:04:53;;;;;;;5.78;1.20;;;;;;;;;;5071515;28;20035;-62
2021/07/29 11:07:19;;;;;;;2.28;0.88;;;;;;;;;;5074418;28;20414;-62
2021/07/29 11:09:44;;;;;;;2.28;1.42;;;;;;;;;;5074247;28;20042;-62
2021/07/29 11:12:12;;;;;;;2.78;1.20;;;;;;;;;;5074353;28;20103;-61
2021/07/29 11:14:39;;;;;;;1.20;1.10;;;;;;;;;;5070572;28;20032;-62
2021/07/29 11:17:04;;;;;;;2.05;0.90;;;;;;;;;;5073920;28;20027;-62
2021/07/29 11:19:32;;;;;;;1.45;1.00;;;;;;;;;;5073591;28;20378;-62
2021/07/29 11:22:04;;;;;;;2.13;1.10;;;;;;;;;;5074489;28;20066;-62
2021/07/29 11:24:29;;;;;;;3.60;1.05;;;;;;;;;;5071170;28;20012;-62
2021/07/29 11:26:54;;;;;;;1.08;0.63;;;;;;;;;;5073474;28;20025;-62
2021/07/29 11:29:20;;;;;;;1.40;0.70;;;;;;;;;;5062958;28;20522;-62
2021/07/29 11:31:45;;;;;;;2.13;1.27;;;;;;;;;;5073955;28;20024;-62
2021/07/29 11:34:11;;;;;;;2.10;0.80;;;;;;;;;;5071058;28;20246;-62
2021/07/29 11:36:36;;;;;;;2.00;0.98;;;;;;;;;;5074113;28;20761;-62
2021/07/29 11:39:05;;;;;;;2.13;0.88;;;;;;;;;;5073838;28;20070;-62
2021/07/29 11:41:48;;;;;;;1.30;1.20;;;;;;;;;;5073042;28;20016;-62
2021/07/29 11:44:13;;;;;;;1.77;0.88;;;;;;;;;;5069767;28;20020;-62
2021/07/29 11:46:50;;;;;;;1.52;1.05;;;;;;;;;;5073491;28;20043;-62
2021/07/29 11:49:15;;;;;;;3.25;1.20;;;;;;;;;;5073139;28;20014;-62
2021/07/29 11:51:40;;;;;;;5.00;1.40;;;;;;;;;;5073191;28;20017;-61
2021/07/29 11:54:05;;;;;;;3.83;1.40;;;;;;;;;;5070324;28;20271;-61
2021/07/29 11:56:31;;;;;;;2.10;1.40;;;;;;;;;;5073536;28;20283;-61
2021/07/29 11:59:00;;;;;;;1.65;1.30;;;;;;;;;;5068070;28;20279;-62
2021/07/29 12:01:26;;;;;;;3.67;1.17;;;;;;;;;;5058252;28;20039;-61
2021/07/29 12:03:52;;;;;;;1.73;1.00;;;;;;;;;;5070045;28;20020;-61
2021/07/29 12:06:17;;;;;;;1.83;1.10;;;;;;;;;;5073220;28;20432;-61
2021/07/29 12:08:44;;;;;;;2.75;1.00;;;;;;;;;;5073383;28;20028;-61
2021/07/29 12:11:10;;;;;;;1.90;1.25;;;;;;;;;;5073056;28;20463;-62
2021/07/29 12:13:38;;;;;;;2.15;1.20;;;;;;;;;;5064488;28;20031;-62
2021/07/29 12:16:04;;;;;;;2.47;1.40;;;;;;;;;;5072929;28;20031;-62
2021/07/29 12:18:29;;;;;;;1.55;1.20;;;;;;;;;;5053228;28;20021;-62
2021/07/29 12:20:56;;;;;;;3.15;1.15;;;;;;;;;;5066281;28;20024;-62
2021/07/29 12:23:22;;;;;;;4.53;1.48;;;;;;;;;;5070286;28;20505;-62
2021/07/29 12:25:48;;;;;;;3.22;1.58;;;;;;;;;;5072250;28;20024;-62
2021/07/29 12:28:14;;;;;;;1.33;0.98;;;;;;;;;;5062122;28;20310;-62
2021/07/29 12:30:42;;;;;;;2.15;1.25;;;;;;;;;;5064661;28;20031;-62
2021/07/29 12:33:08;;;;;;;0.77;0.77;;;;;;;;;;5072055;28;20094;-62
2021/07/29 12:35:33;;;;;;;1.40;1.25;;;;;;;;;;5070277;28;20467;-62
2021/07/29 12:37:58;;;;;;;1.95;0.93;;;;;;;;;;5069809;28;20024;-62
2021/07/29 12:40:27;;;;;;;1.87;1.00;;;;;;;;;;5068624;28;20368;-62
2021/07/29 12:42:52;;;;;;;1.80;1.02;;;;;;;;;;5052866;28;20267;-62
2021/07/29 12:45:17;;;;;;;2.70;1.20;;;;;;;;;;5068340;28;20016;-62
2021/07/29 12:48:03;;;;;;;2.13;0.98;;;;;;;;;;5072618;28;20259;-62
2021/07/29 12:50:37;;;;;;;2.00;1.00;;;;;;;;;;5071797;28;20040;-62
2021/07/29 12:53:02;;;;;;;;;;;;;;;;;;5071613;28;20029;-62
2021/07/29 12:55:35;;;;;;;2.97;1.00;;;;;;;;;;5064305;28;19908;-62
2021/07/29 12:58:00;;;;;;;3.60;1.05;;;;;;;;;;5052283;28;20052;-62
2021/07/29 13:00:25;;;;;;;1.42;1.10;;;;;;;;;;5052657;28;20371;-62
2021/07/29 13:02:51;;;;;;;1.10;0.83;;;;;;;;;;5068753;28;20063;-62
2021/07/29 13:05:16;;;;;;;3.23;1.30;;;;;;;;;;5068901;28;20057;-62
2021/07/29 13:07:41;;;;;;;1.95;1.15;;;;;;;;;;5068860;28;20413;-62
2021/07/29 13:10:07;;;;;;;0.90;0.80;;;;;;;;;;5072302;28;20021;-62
2021/07/29 13:12:34;;;;;;;3.92;1.35;;;;;;;;;;5072018;28;20321;-62
2021/07/29 13:15:00;;;;;;;2.83;1.40;;;;;;;;;;5049374;28;20013;-61
2021/07/29 13:17:25;;;;;;;3.75;0.90;;;;;;;;;;5052245;28;20037;-62
2021/07/29 13:19:50;;;;;;;2.73;1.10;;;;;;;;;;5056870;28;20016;-62
2021/07/29 13:22:16;;;;;;;2.10;1.00;;;;;;;;;;5071467;28;20024;-62
2021/07/29 13:24:41;;;;;;;1.35;0.85;;;;;;;;;;5069220;28;20467;-61
2021/07/29 13:27:06;;;;;;;2.13;1.50;;;;;;;;;;5071469;28;20028;-62
2021/07/29 13:29:31;;;;;;;1.07;0.97;;;;;;;;;;5071691;28;20274;-62
2021/07/29 13:31:57;;;;;;;1.00;0.90;;;;;;;;;;5072225;28;20385;-62
2021/07/29 13:34:22;;;;;;;0.82;0.80;;;;;;;;;;5069127;28;20745;-62
2021/07/29 13:36:48;;;;;;;1.20;1.10;;;;;;;;;;5069973;28;20102;-62
2021/07/29 13:39:13;;;;;;;3.03;0.73;;;;;;;;;;5069462;28;20024;-62
2021/07/29 13:41:38;;;;;;;2.03;0.82;;;;;;;;;;5071655;28;20016;-62
2021/07/29 13:44:08;;;;;;;1.50;0.90;;;;;;;;;;5068661;28;20035;-62
2021/07/29 13:46:34;;;;;;;0.82;0.60;;;;;;;;;;5071936;28;20124;-62
2021/07/29 13:48:59;;;;;;;1.48;1.27;;;;;;;;;;5071199;28;20562;-62
2021/07/29 13:51:24;;;;;;;2.30;1.50;;;;;;;;;;5070880;28;20031;-62
2021/07/29 13:53:49;;;;;;;0.73;0.65;;;;;;;;;;5068881;28;20015;-61
2021/07/29 13:56:15;;;;;;;1.60;1.50;;;;;;;;;;5071804;28;20115;-61
2021/07/29 13:58:40;;;;;;;2.23;1.03;;;;;;;;;;5071628;28;20263;-62
2021/07/29 14:01:05;;;;;;;2.07;1.03;;;;;;;;;;5071347;28;20056;-62
2021/07/29 14:03:30;;;;;;;1.77;1.00;;;;;;;;;;5068147;28;20017;-62
2021/07/29 14:05:55;;;;;;;1.70;1.60;;;;;;;;;;5075453;28;20298;-62
2021/07/29 14:08:21;;;;;;;1.40;1.30;;;;;;;;;;5074810;28;20056;-62
2021/07/29 14:10:46;;;;;;;1.27;1.08;;;;;;;;;;5075270;28;20259;-63
2021/07/29 14:13:11;;;;;;;2.47;1.02;;;;;;;;;;5073783;28;20028;-62
2021/07/29 14:15:36;;;;;;;2.17;1.40;;;;;;;;;;5074270;28;20016;-61
2021/07/29 14:18:03;;;;;;;2.03;1.33;;;;;;;;;;5074925;28;20419;-61
2021/07/29 14:23:02;;;;;;;1.38;1.27;;;;;;;;;;5073930;28;20017;-62
2021/07/29 14:25:29;;;;;;;3.35;1.40;;;;;;;;;;5073036;28;20379;-62
2021/07/29 14:27:55;;;;;;;2.03;1.30;;;;;;;;;;5074963;28;20451;-61
2021/07/29 14:30:20;;;;;;;2.15;1.98;;;;;;;;;;5074916;28;20052;-62
2021/07/29 14:32:45;;;;;;;4.05;1.50;;;;;;;;;;5070521;28;20035;-62
2021/07/29 14:35:11;;;;;;;2.55;1.70;;;;;;;;;;5071831;28;20099;-62
2021/07/29 14:37:36;;;;;;;3.17;1.50;;;;;;;;;;5075227;28;20020;-63
2021/07/29 14:40:02;;;;;;;4.30;1.52;;;;;;;;;;5071685;28;20043;-62
2021/07/29 14:42:27;;;;;;;3.03;1.73;;;;;;;;;;5064698;28;20016;-63